createdAt,value
2023-05-05T00:03:09.378Z,101890.84
2023-05-05T00:08:11.105Z,101886.56
2023-05-05T00:13:13.251Z,101887.50
2023-05-05T00:18:16.639Z,101871.53
2023-05-05T00:23:23.121Z,101865.97
2023-05-05T00:28:24.863Z,101863.75
2023-05-05T00:33:34.396Z,101853.50
2023-05-05T00:38:36.253Z,101849.69
2023-05-05T00:43:40.378Z,101844.94
2023-05-05T00:48:42.048Z,101839.56
2023-05-05T00:53:46.659Z,101833.44
2023-05-05T00:58:51.345Z,101828.84
2023-05-05T01:03:53.462Z,101823.13
2023-05-05T01:09:22.651Z,101810.06
2023-05-05T01:14:42.080Z,101796.88
2023-05-05T01:19:55.840Z,101809.53
2023-05-05T01:25:33.551Z,101800.97
2023-05-05T01:30:47.430Z,101792.13
2023-05-05T01:35:55.914Z,101788.25
2023-05-05T01:41:30.934Z,101787.56
2023-05-05T01:46:34.433Z,101790.13
2023-05-05T01:51:39.130Z,101784.38
2023-05-05T01:56:41.261Z,101797.19
2023-05-05T02:01:47.241Z,101794.81
2023-05-05T02:06:51.616Z,101789.22
2023-05-05T02:11:53.317Z,101782.53
2023-05-05T02:16:59.125Z,101774.13
2023-05-05T02:22:00.870Z,101766.69
2023-05-05T02:27:06.302Z,101754.50
2023-05-05T02:32:14.901Z,101762.81
2023-05-05T02:37:24.921Z,101755.00
2023-05-05T02:42:35.758Z,101754.59
2023-05-05T02:47:39.083Z,101754.31
2023-05-05T02:52:44.631Z,101752.78
2023-05-05T02:58:37.695Z,101744.94
2023-05-05T03:03:47.191Z,101747.06
2023-05-05T03:09:23.666Z,101737.22
2023-05-05T03:14:27.551Z,101736.53
2023-05-05T03:19:32.210Z,101733.88
2023-05-05T03:24:35.993Z,101725.16
2023-05-05T03:29:42.426Z,101730.50
2023-05-05T03:34:48.149Z,101711.00
2023-05-05T03:39:52.322Z,101708.34
2023-05-05T03:44:58.445Z,101705.81
2023-05-05T03:50:02.519Z,101707.63
2023-05-05T03:55:05.460Z,101700.19
2023-05-05T04:00:11.055Z,101704.91
2023-05-05T04:05:19.807Z,101711.50
2023-05-05T04:10:27.125Z,101698.75
2023-05-05T04:15:33.298Z,101692.88
2023-05-05T04:20:39.369Z,101712.50
2023-05-05T04:25:41.294Z,101719.06
2023-05-05T04:30:44.421Z,101717.47
2023-05-05T04:35:46.473Z,101713.66
2023-05-05T04:40:50.512Z,101703.22
2023-05-05T04:45:55.197Z,101697.09
2023-05-05T04:51:06.723Z,101700.66
2023-05-05T04:56:08.772Z,101700.66
2023-05-05T05:01:13.506Z,101718.19
2023-05-05T05:06:15.483Z,101708.25
2023-05-05T05:11:21.457Z,101699.19
2023-05-05T05:16:26.290Z,101705.97
2023-05-05T05:21:32.742Z,101709.25
2023-05-05T05:26:34.906Z,101729.00
2023-05-05T05:31:40.720Z,101749.44
2023-05-05T05:36:44.813Z,101739.22
2023-05-05T05:41:46.638Z,101737.91
2023-05-05T05:46:50.709Z,101734.50
2023-05-05T05:51:52.646Z,101743.38
2023-05-05T05:56:59.676Z,101738.19
2023-05-05T06:02:01.683Z,101748.00
2023-05-05T06:07:03.940Z,101758.38
2023-05-05T06:12:06.142Z,101772.94
2023-05-05T06:17:13.117Z,101797.59
2023-05-05T06:22:15.794Z,101802.56
2023-05-05T06:27:20.226Z,101821.56
2023-05-05T06:32:21.981Z,101859.91
2023-05-05T06:37:26.400Z,101866.00
2023-05-05T06:42:32.166Z,101859.81
2023-05-05T06:47:34.748Z,101859.31
2023-05-05T06:52:36.448Z,101861.13
2023-05-05T06:57:38.193Z,101845.16
2023-05-05T07:02:41.999Z,101851.34
2023-05-05T07:07:52.583Z,101845.63
2023-05-05T07:12:56.638Z,101847.78
2023-05-05T07:18:00.702Z,101831.19
2023-05-05T07:23:02.487Z,101817.31
2023-05-05T07:28:07.112Z,101815.75
2023-05-05T07:33:14.532Z,101787.19
2023-05-05T07:38:16.250Z,101741.34
2023-05-05T07:43:18.086Z,101717.09
2023-05-05T07:48:22.269Z,101760.06
2023-05-05T07:53:24.090Z,101812.97
2023-05-05T07:58:28.266Z,101829.47
2023-05-05T08:03:32.524Z,101827.47
2023-05-05T08:08:34.300Z,101787.84
2023-05-05T08:13:36.096Z,101797.41
2023-05-05T08:18:42.334Z,101797.25
2023-05-05T08:23:46.126Z,101815.53
2023-05-05T08:28:48.767Z,101818.88
2023-05-05T08:33:50.539Z,101818.72
2023-05-05T08:38:54.534Z,101818.38
2023-05-05T08:43:58.846Z,101825.91
2023-05-05T08:49:01.467Z,101817.22
2023-05-05T08:54:04.051Z,101792.56
2023-05-05T08:59:08.972Z,101785.78
2023-05-05T09:04:11.098Z,101796.94
2023-05-05T09:09:18.602Z,101784.53
2023-05-05T09:14:20.295Z,101793.88
2023-05-05T09:19:24.240Z,101774.69
2023-05-05T09:24:28.298Z,101775.13
2023-05-05T09:29:32.278Z,101782.28
2023-05-05T09:34:35.295Z,101784.88
2023-05-05T09:39:37.068Z,101797.78
2023-05-05T09:44:40.075Z,101795.84
2023-05-05T09:49:44.389Z,101798.28
2023-05-05T09:54:54.034Z,101803.38
2023-05-05T10:00:04.176Z,101800.69
2023-05-05T10:05:14.671Z,101805.63
2023-05-05T10:10:19.243Z,101797.59
2023-05-05T10:15:21.611Z,101804.25
2023-05-05T10:20:25.047Z,101811.03
2023-05-05T10:25:31.377Z,101822.84
2023-05-05T10:30:37.121Z,101820.47
2023-05-05T10:35:41.689Z,101825.09
2023-05-05T10:40:45.486Z,101824.78
2023-05-05T10:45:52.040Z,101824.13
2023-05-05T10:51:03.498Z,101822.31
2023-05-05T10:56:11.656Z,101811.66
2023-05-05T11:01:28.909Z,101809.91
2023-05-05T11:06:33.277Z,101811.69
2023-05-05T11:12:08.148Z,101813.22
2023-05-05T11:17:47.997Z,101802.03
2023-05-05T11:23:04.209Z,101787.50
2023-05-05T11:28:07.075Z,101782.53
2023-05-05T11:33:31.478Z,101776.31
2023-05-05T11:38:36.308Z,101769.66
2023-05-05T11:43:38.422Z,101775.91
2023-05-05T11:48:51.978Z,101763.25
2023-05-05T11:53:58.418Z,101763.47
2023-05-05T11:59:10.795Z,101762.81
2023-05-05T12:04:13.539Z,101764.84
2023-05-05T12:09:22.389Z,101757.81
2023-05-05T12:14:25.022Z,101754.97
2023-05-05T12:19:33.074Z,101755.47
2023-05-05T12:24:35.175Z,101757.47
2023-05-05T12:29:41.649Z,101749.25
2023-05-05T12:34:45.735Z,101753.94
2023-05-05T12:39:47.783Z,101737.66
2023-05-05T12:44:49.794Z,101735.75
2023-05-05T12:49:56.531Z,101739.88
2023-05-05T12:54:59.609Z,101739.97
2023-05-05T13:00:12.652Z,101729.03
2023-05-05T13:05:16.581Z,101733.56
2023-05-05T13:10:23.119Z,101722.75
2023-05-05T13:15:27.951Z,101721.50
2023-05-05T13:20:29.678Z,101707.59
2023-05-05T13:25:31.566Z,101700.97
2023-05-05T13:30:35.789Z,101694.56
2023-05-05T13:35:37.707Z,101681.47
2023-05-05T13:40:39.601Z,101674.13
2023-05-05T13:45:42.069Z,101663.06
2023-05-05T13:50:43.951Z,101672.22
2023-05-05T13:55:45.859Z,101663.03
2023-05-05T14:00:52.421Z,101643.66
2023-05-05T14:05:54.230Z,101639.91
2023-05-05T14:10:55.892Z,101630.72
2023-05-05T14:15:58.450Z,101622.13
2023-05-05T14:21:02.267Z,101621.47
2023-05-05T14:26:06.266Z,101623.66
2023-05-05T14:31:07.964Z,101606.91
2023-05-05T14:36:09.687Z,101626.97
2023-05-05T14:41:13.610Z,101626.84
2023-05-05T14:46:15.467Z,101633.91
2023-05-05T14:51:19.390Z,101628.47
2023-05-05T14:56:24.478Z,101622.59
2023-05-05T15:01:28.965Z,101625.72
2023-05-05T15:06:32.899Z,101622.88
2023-05-05T15:11:34.601Z,101623.75
2023-05-05T15:16:38.187Z,101616.97
2023-05-05T15:21:42.991Z,101617.97
2023-05-05T15:26:46.956Z,101621.06
2023-05-05T15:31:48.710Z,101622.41
2023-05-05T15:36:54.016Z,101608.88
2023-05-05T15:41:55.737Z,101605.53
2023-05-05T15:47:00.111Z,101606.69
2023-05-05T15:52:04.845Z,101618.91
2023-05-05T15:57:08.836Z,101617.94
2023-05-05T16:02:10.550Z,101628.19
2023-05-05T16:07:17.496Z,101631.47
2023-05-05T16:12:20.886Z,101634.59
2023-05-05T16:17:24.893Z,101649.13
2023-05-05T16:22:26.825Z,101662.13
2023-05-05T16:27:28.504Z,101670.06
2023-05-05T16:32:33.352Z,101689.56
2023-05-05T16:37:37.364Z,101699.06
2023-05-05T16:42:39.090Z,101702.19
2023-05-05T16:47:43.371Z,101716.78
2023-05-05T16:52:50.831Z,101718.44
2023-05-05T16:57:52.682Z,101707.59
2023-05-05T17:02:56.459Z,101714.41
2023-05-05T17:07:58.193Z,101719.91
2023-05-05T17:13:02.312Z,101719.06
2023-05-05T17:18:05.159Z,101726.72
2023-05-05T17:23:08.588Z,101736.94
2023-05-05T17:28:12.725Z,101734.81
2023-05-05T17:33:22.126Z,101730.31
2023-05-05T17:38:23.990Z,101722.84
2023-05-05T17:43:25.774Z,101730.81
2023-05-05T17:48:27.714Z,101723.03
2023-05-05T17:53:32.027Z,101723.66
2023-05-05T17:58:34.004Z,101733.59
2023-05-05T18:03:36.812Z,101721.25
2023-05-05T18:08:39.602Z,101714.69
2023-05-05T18:13:43.800Z,101717.84
2023-05-05T18:18:45.565Z,101711.75
2023-05-05T18:23:49.883Z,101704.88
2023-05-05T18:28:51.642Z,101694.56
2023-05-05T18:33:56.097Z,101676.50
2023-05-05T18:38:57.840Z,101673.09
2023-05-05T18:44:01.742Z,101668.28
2023-05-05T18:49:06.268Z,101668.34
2023-05-05T18:54:13.193Z,101661.69
2023-05-05T18:59:19.736Z,101654.59
2023-05-05T19:04:30.202Z,101666.72
2023-05-05T19:09:36.067Z,101665.72
2023-05-05T19:14:37.816Z,101656.88
2023-05-05T19:19:39.637Z,101683.03
2023-05-05T19:24:48.398Z,101675.84
2023-05-05T19:29:52.977Z,101694.09
2023-05-05T19:34:57.107Z,101702.00
2023-05-05T19:39:59.450Z,101721.06
2023-05-05T19:45:06.978Z,101711.88
2023-05-05T19:50:09.464Z,101720.47
2023-05-05T19:55:13.010Z,101716.81
2023-05-05T20:00:15.475Z,101726.25
2023-05-05T20:05:17.685Z,101739.09
2023-05-05T20:10:19.719Z,101733.94
2023-05-05T20:15:21.745Z,101730.28
2023-05-05T20:20:23.566Z,101739.19
2023-05-05T20:25:25.392Z,101730.84
2023-05-05T20:30:29.418Z,101723.31
2023-05-05T20:35:31.354Z,101719.81
2023-05-05T20:40:35.307Z,101717.63
2023-05-05T20:45:37.276Z,101717.69
2023-05-05T20:50:43.809Z,101703.44
2023-05-05T20:55:50.349Z,101703.78
2023-05-05T21:00:52.213Z,101718.22
2023-05-05T21:05:56.317Z,101704.50
2023-05-05T21:10:58.228Z,101700.13
2023-05-05T21:15:59.958Z,101704.50
2023-05-05T21:21:06.460Z,101707.81
2023-05-05T21:26:10.436Z,101713.03
2023-05-05T21:31:21.963Z,101717.75
2023-05-05T21:36:24.798Z,101717.94
2023-05-05T21:41:28.746Z,101713.56
2023-05-05T21:46:33.297Z,101712.72
2023-05-05T21:51:39.561Z,101710.88
2023-05-05T21:56:41.246Z,101725.47
2023-05-05T22:01:45.294Z,101729.84
2023-05-05T22:06:49.877Z,101720.94
2023-05-05T22:11:56.084Z,101728.16
2023-05-05T22:16:57.781Z,101724.50
2023-05-05T22:22:04.212Z,101716.75
2023-05-05T22:27:08.248Z,101719.31
2023-05-05T22:32:09.934Z,101708.91
2023-05-05T22:37:14.203Z,101712.94
2023-05-05T22:42:15.949Z,101711.44
2023-05-05T22:47:22.737Z,101713.81
2023-05-05T22:52:29.059Z,101725.00
2023-05-05T22:57:30.885Z,101726.53
2023-05-05T23:02:40.121Z,101728.19
2023-05-05T23:07:41.887Z,101721.34
2023-05-05T23:12:43.594Z,101722.69
2023-05-05T23:17:45.456Z,101709.97
2023-05-05T23:22:50.300Z,101715.13
2023-05-05T23:27:54.123Z,101716.16
2023-05-05T23:32:57.491Z,101715.13
2023-05-05T23:38:01.330Z,101714.81
2023-05-05T23:43:08.007Z,101703.25
2023-05-05T23:48:09.710Z,101709.47
2023-05-05T23:53:11.458Z,101711.78
2023-05-05T23:58:13.131Z,101724.19
